Time;durP1;ratioP1;P1;durP2;ratioP2;P2;SDS_P1;SDS_P2;PMS_P1;PMS_P2;Temp;Humidity;BMP_temperature;BMP_pressure;BME280_temperature;BME280_humidity;BME280_pressure;Samples;Min_cycle;Max_cycle;Signal;HPM_P1;HPM_P2
2023/03/15 00:00:36;;;;;;;5.38;4.03;;;7.10;61.90;;;;;;4969699;28;20042;-61
2023/03/15 00:03:03;;;;;;;4.72;4.00;;;7.20;62.10;;;;;;4971906;28;20035;-62
2023/03/15 00:05:29;;;;;;;5.70;4.25;;;7.20;62.10;;;;;;4974201;28;20034;-63
2023/03/15 00:07:54;;;;;;;5.57;4.25;;;7.10;62.20;;;;;;4985737;28;20035;-61
2023/03/15 00:10:20;;;;;;;5.55;4.47;;;7.10;62.20;;;;;;4978643;28;20038;-63
2023/03/15 00:12:45;;;;;;;5.72;4.45;;;7.10;62.20;;;;;;4975595;28;20039;-60
2023/03/15 00:15:14;;;;;;;5.53;4.43;;;7.10;62.40;;;;;;4975593;28;20042;-62
2023/03/15 00:17:40;;;;;;;5.70;4.40;;;7.10;62.30;;;;;;4975713;28;20050;-62
2023/03/15 00:20:06;;;;;;;5.68;4.30;;;7.10;62.40;;;;;;4975350;28;20039;-62
2023/03/15 00:22:32;;;;;;;7.05;4.60;;;7.10;62.40;;;;;;4975588;28;20039;-61
2023/03/15 00:24:58;;;;;;;6.93;5.00;;;7.10;62.60;;;;;;4975067;28;20057;-62
2023/03/15 00:27:23;;;;;;;6.00;4.45;;;7.10;63.30;;;;;;4970863;28;20031;-67
2023/03/15 00:29:49;;;;;;;8.43;5.50;;;7.00;62.80;;;;;;4974470;28;20697;-68
2023/03/15 00:32:15;;;;;;;8.18;5.70;;;7.00;62.90;;;;;;4969074;28;20034;-69
2023/03/15 00:34:41;;;;;;;8.05;6.47;;;7.00;63.00;;;;;;4976150;28;20019;-67
2023/03/15 00:37:07;;;;;;;9.13;7.00;;;7.00;63.10;;;;;;4975771;28;20030;-63
2023/03/15 00:39:36;;;;;;;10.90;8.15;;;6.90;63.20;;;;;;4974825;28;20086;-63
2023/03/15 00:42:02;;;;;;;10.25;8.00;;;6.90;63.50;;;;;;4974372;28;20027;-62
2023/03/15 00:44:29;;;;;;;10.65;8.52;;;6.90;63.60;;;;;;4974989;28;20035;-62
2023/03/15 00:46:55;;;;;;;10.82;8.60;;;6.90;63.70;;;;;;4979867;28;20027;-59
2023/03/15 00:49:20;;;;;;;11.98;9.05;;;6.90;63.80;;;;;;4975749;28;20038;-59
2023/03/15 00:51:46;;;;;;;12.38;9.00;;;6.90;63.80;;;;;;4975286;28;20034;-59
2023/03/15 00:54:12;;;;;;;12.80;9.55;;;6.90;63.90;;;;;;4974130;28;20074;-59
2023/03/15 00:56:39;;;;;;;12.90;9.90;;;6.80;63.90;;;;;;4975953;28;20029;-61
2023/03/15 00:59:04;;;;;;;12.93;9.55;;;6.80;64.00;;;;;;4974778;28;20449;-61
2023/03/15 01:01:30;;;;;;;13.88;9.40;;;6.80;64.00;;;;;;4968040;28;20038;-63
2023/03/15 01:03:56;;;;;;;12.18;8.82;;;6.80;64.20;;;;;;4974831;28;20034;-62
2023/03/15 01:06:24;;;;;;;11.38;8.88;;;6.80;64.40;;;;;;4974867;28;20038;-62
2023/03/15 01:08:50;;;;;;;15.13;9.85;;;6.80;64.30;;;;;;4975123;28;20026;-62
2023/03/15 01:11:23;;;;;;;12.75;9.38;;;6.80;64.20;;;;;;4983655;28;20034;-53
2023/03/15 01:13:50;;;;;;;11.48;8.68;;;6.90;64.40;;;;;;4965868;28;20035;-50
2023/03/15 01:16:16;;;;;;;11.05;7.97;;;6.90;64.40;;;;;;4973850;28;20033;-50
2023/03/15 01:18:42;;;;;;;10.23;8.65;;;6.90;64.40;;;;;;4974387;28;20031;-51
2023/03/15 01:21:10;;;;;;;12.80;9.68;;;6.90;64.50;;;;;;4974418;28;20689;-61
2023/03/15 01:23:36;;;;;;;12.13;9.05;;;7.00;64.40;;;;;;4972840;28;20055;-61
2023/03/15 01:26:04;;;;;;;12.15;8.82;;;7.00;64.40;;;;;;4974528;28;20046;-60
2023/03/15 01:28:30;;;;;;;12.07;9.10;;;7.00;65.00;;;;;;4974827;28;20173;-59
2023/03/15 01:30:55;;;;;;;13.95;8.95;;;7.00;64.30;;;;;;4972825;28;20102;-59
2023/03/15 01:33:22;;;;;;;11.32;8.45;;;7.00;64.40;;;;;;4966353;28;20031;-59
2023/03/15 01:35:47;;;;;;;10.27;7.50;;;7.00;64.40;;;;;;4969751;28;20038;-64
2023/03/15 01:38:13;;;;;;;11.32;7.53;;;6.90;64.50;;;;;;4974181;28;20438;-63
2023/03/15 01:40:43;;;;;;;10.00;6.50;;;6.90;64.60;;;;;;4974083;28;20061;-63
2023/03/15 01:43:17;;;;;;;8.93;6.47;;;6.90;65.00;;;;;;4974610;28;20035;-64
2023/03/15 01:46:03;;;;;;;8.25;6.10;;;6.80;65.20;;;;;;4973531;28;20102;-64
2023/03/15 01:48:37;;;;;;;7.53;5.80;;;6.80;65.40;;;;;;4974101;28;20101;-63
2023/03/15 01:51:15;;;;;;;8.82;6.10;;;6.70;65.50;;;;;;4974397;28;20110;-69
2023/03/15 01:53:44;;;;;;;8.55;5.75;;;6.70;65.70;;;;;;4966405;28;20037;-71
2023/03/15 01:56:10;;;;;;;9.23;6.10;;;6.60;66.00;;;;;;4980384;28;20030;-69
2023/03/15 01:58:39;;;;;;;8.13;6.10;;;6.50;66.20;;;;;;4974366;28;20038;-71
2023/03/15 02:01:06;;;;;;;8.52;6.03;;;6.50;66.50;;;;;;4974616;28;20462;-66
2023/03/15 02:03:37;;;;;;;7.55;5.63;;;6.40;67.50;;;;;;4974386;28;20038;-66
2023/03/15 02:06:08;;;;;;;7.05;5.68;;;6.40;67.00;;;;;;4974257;28;20033;-71
2023/03/15 02:08:40;;;;;;;6.80;5.47;;;6.30;67.20;;;;;;4975689;28;20474;-67
2023/03/15 02:11:06;;;;;;;8.52;5.53;;;6.30;67.40;;;;;;4977535;28;20035;-59
2023/03/15 02:13:35;;;;;;;8.50;6.40;;;6.30;67.70;;;;;;4973769;28;20037;-58
2023/03/15 02:16:05;;;;;;;7.90;6.15;;;6.20;67.80;;;;;;4973410;28;20026;-52
2023/03/15 02:18:34;;;;;;;7.43;5.70;;;6.20;67.90;;;;;;4972825;28;20378;-52
2023/03/15 02:21:31;;;;;;;9.57;5.88;;;6.20;67.90;;;;;;4972813;28;20030;-59
2023/03/15 02:24:27;;;;;;;8.25;6.13;;;6.20;67.90;;;;;;4968197;28;20390;-58
2023/03/15 02:26:55;;;;;;;9.13;6.55;;;6.20;67.80;;;;;;4971000;28;20037;-61
2023/03/15 02:29:23;;;;;;;8.68;6.70;;;6.20;67.90;;;;;;4972042;28;20037;-61
2023/03/15 02:31:49;;;;;;;8.13;6.20;;;6.20;68.00;;;;;;4972781;28;20049;-61
2023/03/15 02:34:14;;;;;;;8.73;6.45;;;6.20;68.00;;;;;;4973108;28;20034;-61
2023/03/15 02:36:40;;;;;;;7.00;6.03;;;6.20;67.90;;;;;;4972788;28;20038;-61
2023/03/15 02:39:17;;;;;;;8.70;6.68;;;6.20;68.10;;;;;;4972636;28;20044;-61
2023/03/15 02:41:48;;;;;;;8.95;7.25;;;6.20;68.20;;;;;;4972463;28;20035;-61
2023/03/15 02:44:20;;;;;;;8.53;7.00;;;6.30;68.20;;;;;;4973200;28;20034;-61
2023/03/15 02:46:46;;;;;;;;;;;6.30;68.10;;;;;;4977276;28;20035;-60
2023/03/15 02:49:13;;;;;;;9.00;6.55;;;6.20;68.00;;;;;;4972594;28;19953;-60
2023/03/15 02:51:39;;;;;;;9.43;7.50;;;6.20;67.70;;;;;;4972645;28;20089;-61
2023/03/15 02:54:05;;;;;;;11.00;7.97;;;6.20;67.80;;;;;;4970516;28;20061;-61
2023/03/15 02:56:32;;;;;;;10.38;7.25;;;6.20;67.90;;;;;;4976668;28;20023;-61
2023/03/15 02:58:58;;;;;;;9.90;7.57;;;6.30;68.00;;;;;;4971682;28;20125;-61
2023/03/15 03:01:24;;;;;;;9.75;7.28;;;6.30;68.00;;;;;;4972854;28;20122;-61
2023/03/15 03:03:49;;;;;;;10.20;7.38;;;6.20;68.00;;;;;;4972908;28;20117;-61
2023/03/15 03:06:17;;;;;;;9.25;7.05;;;6.30;68.20;;;;;;4972892;28;20023;-61
2023/03/15 03:08:45;;;;;;;9.15;7.50;;;6.30;68.20;;;;;;4982316;28;20034;-61
2023/03/15 03:11:13;;;;;;;9.27;7.22;;;6.30;68.30;;;;;;4973116;28;20042;-61
2023/03/15 03:13:39;;;;;;;9.57;7.38;;;6.30;68.30;;;;;;4972949;28;20466;-60
2023/03/15 03:16:05;;;;;;;12.00;7.40;;;6.30;68.20;;;;;;4972831;28;20134;-61
2023/03/15 03:18:34;;;;;;;11.35;8.07;;;6.40;68.20;;;;;;4972549;28;20106;-61
2023/03/15 03:21:01;;;;;;;9.57;7.53;;;6.30;68.00;;;;;;4971992;28;20113;-61
2023/03/15 03:23:27;;;;;;;10.35;7.35;;;6.30;68.10;;;;;;4969344;28;20051;-61
2023/03/15 03:25:54;;;;;;;10.77;7.72;;;6.20;68.20;;;;;;4968847;28;20046;-55
2023/03/15 03:28:23;;;;;;;10.43;8.10;;;6.20;68.40;;;;;;4972478;28;20085;-50
2023/03/15 03:30:49;;;;;;;12.10;8.27;;;6.20;68.60;;;;;;4972370;28;20027;-61
2023/03/15 03:33:14;;;;;;;11.77;8.05;;;6.10;68.60;;;;;;4964937;28;20429;-63
2023/03/15 03:35:41;;;;;;;12.38;8.20;;;6.10;68.60;;;;;;4970552;28;20043;-61
2023/03/15 03:38:08;;;;;;;10.27;7.57;;;6.10;68.70;;;;;;4972674;28;20498;-62
2023/03/15 03:40:34;;;;;;;11.77;8.02;;;6.00;68.80;;;;;;4975242;28;20034;-62
2023/03/15 03:43:00;;;;;;;11.18;8.10;;;6.00;69.00;;;;;;4976380;28;20034;-62
2023/03/15 03:45:25;;;;;;;11.07;7.78;;;6.00;69.70;;;;;;4976111;28;20046;-61
2023/03/15 03:47:51;;;;;;;11.65;7.75;;;6.00;69.30;;;;;;4978904;28;20046;-62
2023/03/15 03:50:17;;;;;;;10.40;7.68;;;6.00;69.30;;;;;;4976264;28;20031;-61
2023/03/15 03:52:43;;;;;;;9.57;7.15;;;6.00;69.50;;;;;;4975308;28;20142;-61
2023/03/15 03:55:12;;;;;;;9.98;7.35;;;6.00;69.60;;;;;;4976110;28;20027;-62
2023/03/15 03:57:39;;;;;;;9.18;6.97;;;6.00;69.70;;;;;;4975610;28;20034;-60
2023/03/15 04:00:05;;;;;;;11.35;7.68;;;6.10;69.90;;;;;;4974183;28;20035;-63
2023/03/15 04:02:32;;;;;;;10.75;7.30;;;6.20;70.00;;;;;;4974354;28;20473;-62
2023/03/15 04:04:58;;;;;;;12.73;7.97;;;6.20;70.10;;;;;;4975501;28;20039;-62
2023/03/15 04:07:24;;;;;;;11.70;8.15;;;6.20;70.10;;;;;;4979212;28;20077;-62
2023/03/15 04:09:49;;;;;;;11.93;8.40;;;6.20;70.10;;;;;;4975392;28;20025;-62
2023/03/15 04:12:15;;;;;;;11.50;8.75;;;6.30;70.20;;;;;;4979199;28;20035;-59
2023/03/15 04:14:41;;;;;;;12.10;8.40;;;6.30;70.30;;;;;;4974904;28;20041;-60
2023/03/15 04:17:07;;;;;;;12.70;9.07;;;6.40;70.40;;;;;;4969816;28;20034;-71
2023/03/15 04:19:33;;;;;;;9.45;7.97;;;6.40;70.40;;;;;;4975282;28;20022;-68
2023/03/15 04:22:05;;;;;;;12.27;8.75;;;6.40;70.60;;;;;;4975274;28;20062;-72
2023/03/15 04:24:32;;;;;;;12.23;8.75;;;6.40;70.70;;;;;;4975072;28;20046;-72
2023/03/15 04:26:58;;;;;;;12.32;8.82;;;6.40;70.80;;;;;;4975081;28;20034;-70
2023/03/15 04:29:23;;;;;;;11.15;8.70;;;6.40;70.90;;;;;;4974672;28;20031;-70
2023/03/15 04:31:49;;;;;;;13.27;9.35;;;6.40;71.00;;;;;;4968872;28;20104;-58
2023/03/15 04:34:15;;;;;;;9.82;7.70;;;6.40;71.20;;;;;;4974950;28;20035;-59
2023/03/15 04:36:41;;;;;;;12.35;8.68;;;6.50;71.40;;;;;;4975062;28;20065;-64
2023/03/15 04:39:08;;;;;;;10.18;7.53;;;6.50;71.50;;;;;;4974462;28;20031;-63
2023/03/15 04:41:34;;;;;;;9.95;7.60;;;6.60;71.70;;;;;;4975060;28;20430;-56
2023/03/15 04:44:03;;;;;;;9.73;7.15;;;6.60;71.60;;;;;;4975039;28;20418;-55
2023/03/15 04:46:32;;;;;;;10.45;7.50;;;6.70;71.80;;;;;;4978991;28;20042;-64
2023/03/15 04:48:58;;;;;;;12.45;7.80;;;6.80;71.70;;;;;;4974069;28;20386;-63
2023/03/15 04:51:24;;;;;;;11.70;7.97;;;6.90;71.70;;;;;;4973972;28;20098;-64
2023/03/15 04:53:50;;;;;;;9.30;7.38;;;6.90;71.80;;;;;;4974413;28;20023;-64
2023/03/15 04:56:16;;;;;;;11.52;8.43;;;7.00;71.80;;;;;;4974312;28;20035;-62
2023/03/15 04:58:41;;;;;;;9.73;7.38;;;7.00;71.70;;;;;;4974729;28;20109;-62
2023/03/15 05:01:07;;;;;;;10.88;7.70;;;7.10;71.90;;;;;;4974981;28;20393;-62
2023/03/15 05:03:32;;;;;;;11.43;7.90;;;7.10;71.70;;;;;;4973380;28;20451;-59
2023/03/15 05:06:06;;;;;;;11.88;7.68;;;7.20;71.70;;;;;;4974729;28;20054;-64
2023/03/15 05:08:33;;;;;;;11.95;7.38;;;7.20;71.70;;;;;;4985953;28;20042;-64
2023/03/15 05:10:59;;;;;;;11.30;7.82;;;7.30;72.40;;;;;;4974868;28;20039;-71
2023/03/15 05:13:25;;;;;;;11.18;7.95;;;7.30;71.60;;;;;;4974823;28;20046;-70
2023/03/15 05:15:51;;;;;;;9.55;7.25;;;7.40;71.60;;;;;;4974138;28;20038;-68
2023/03/15 05:18:16;;;;;;;9.27;7.32;;;7.50;71.70;;;;;;4974478;28;20437;-66
2023/03/15 05:20:42;;;;;;;11.32;8.52;;;7.50;71.60;;;;;;4974460;28;20038;-68
2023/03/15 05:23:07;;;;;;;13.18;8.40;;;7.50;71.60;;;;;;4974902;28;20035;-70
2023/03/15 05:25:35;;;;;;;12.85;8.45;;;7.50;71.50;;;;;;4973455;28;20127;-63
2023/03/15 05:28:03;;;;;;;13.13;9.05;;;7.60;71.40;;;;;;4967826;28;20421;-69
2023/03/15 05:30:29;;;;;;;14.18;9.23;;;7.60;71.40;;;;;;4968719;28;20429;-70
2023/03/15 05:32:55;;;;;;;14.13;9.85;;;7.60;71.40;;;;;;4974055;28;20031;-53
2023/03/15 05:35:25;;;;;;;11.93;9.02;;;7.60;71.20;;;;;;4974412;28;20035;-54
2023/03/15 05:37:53;;;;;;;15.23;10.52;;;7.60;71.40;;;;;;4973486;28;20738;-54
2023/03/15 05:40:19;;;;;;;15.48;10.07;;;7.60;71.50;;;;;;4973554;28;20114;-54
2023/03/15 05:42:45;;;;;;;16.77;10.90;;;7.60;71.60;;;;;;4972943;28;20122;-61
2023/03/15 05:45:11;;;;;;;16.05;10.85;;;7.60;71.50;;;;;;4971773;28;20498;-63
2023/03/15 05:47:36;;;;;;;16.65;10.57;;;7.70;71.40;;;;;;4978896;28;20362;-61
2023/03/15 05:50:03;;;;;;;17.13;10.95;;;7.70;71.50;;;;;;4972311;28;20030;-61
2023/03/15 05:52:29;;;;;;;14.30;10.38;;;7.70;71.30;;;;;;4973673;28;20461;-69
2023/03/15 05:54:55;;;;;;;13.38;9.40;;;7.70;71.10;;;;;;4974094;28;20169;-69
2023/03/15 05:57:21;;;;;;;14.88;9.90;;;7.70;71.20;;;;;;4973944;28;20090;-59
2023/03/15 05:59:46;;;;;;;13.05;9.85;;;7.70;71.30;;;;;;4973089;28;20058;-58
2023/03/15 06:02:12;;;;;;;14.02;9.80;;;7.70;71.30;;;;;;4971534;28;20482;-60
2023/03/15 06:04:37;;;;;;;13.32;10.20;;;7.70;71.20;;;;;;4967935;28;20045;-57
2023/03/15 06:07:04;;;;;;;13.27;10.18;;;7.70;71.30;;;;;;4969864;28;20421;-59
2023/03/15 06:09:29;;;;;;;14.02;9.63;;;7.70;71.30;;;;;;4969790;28;20030;-58
2023/03/15 06:11:55;;;;;;;11.32;9.23;;;7.70;71.30;;;;;;4970206;28;20451;-58
2023/03/15 06:14:21;;;;;;;15.48;11.05;;;7.80;71.30;;;;;;4962264;28;20061;-59
2023/03/15 06:16:46;;;;;;;14.23;9.77;;;7.80;71.30;;;;;;4964290;28;20027;-60
2023/03/15 06:19:12;;;;;;;12.27;9.57;;;7.80;71.30;;;;;;4972350;28;20382;-58
2023/03/15 06:21:38;;;;;;;15.77;11.15;;;7.80;71.40;;;;;;4962151;28;20042;-59
2023/03/15 06:24:05;;;;;;;15.75;11.20;;;7.80;71.50;;;;;;4959890;28;20066;-56
2023/03/15 06:26:31;;;;;;;17.50;11.48;;;7.80;71.50;;;;;;4967903;28;20057;-61
2023/03/15 06:28:56;;;;;;;18.55;11.80;;;7.80;71.50;;;;;;4955072;28;20038;-61
2023/03/15 06:31:22;;;;;;;19.60;13.20;;;7.80;71.70;;;;;;4966461;28;20047;-60
2023/03/15 06:33:48;;;;;;;21.08;13.50;;;7.80;71.50;;;;;;4964442;28;20043;-60
2023/03/15 06:36:14;;;;;;;20.17;12.88;;;7.80;71.50;;;;;;4962169;28;20115;-59
2023/03/15 06:38:40;;;;;;;18.48;12.82;;;7.80;71.60;;;;;;4965111;28;20027;-59
2023/03/15 06:41:07;;;;;;;20.17;13.07;;;7.80;71.70;;;;;;4962778;28;20031;-60
2023/03/15 06:43:33;;;;;;;18.17;12.73;;;7.80;71.90;;;;;;4964090;28;20030;-60
2023/03/15 06:45:59;;;;;;;16.15;11.75;;;7.80;71.80;;;;;;4972179;28;20030;-61
2023/03/15 06:48:28;;;;;;;19.80;12.40;;;7.90;72.00;;;;;;4965006;28;20081;-60
2023/03/15 06:50:54;;;;;;;17.30;11.68;;;7.90;72.10;;;;;;4963497;28;20034;-59
2023/03/15 06:53:20;;;;;;;16.27;11.63;;;7.90;72.00;;;;;;4971494;28;20393;-61
2023/03/15 06:55:46;;;;;;;17.70;12.77;;;8.00;72.70;;;;;;4958879;28;20494;-60
2023/03/15 06:58:12;;;;;;;14.00;11.27;;;8.00;72.60;;;;;;4958783;28;20093;-60
2023/03/15 07:00:38;;;;;;;15.48;10.68;;;8.00;72.10;;;;;;4967163;28;20038;-60
2023/03/15 07:03:04;;;;;;;16.08;11.93;;;8.10;72.30;;;;;;4957252;28;20457;-60
2023/03/15 07:05:30;;;;;;;14.60;10.20;;;8.10;72.20;;;;;;4958470;28;20055;-61
2023/03/15 07:07:56;;;;;;;14.70;10.82;;;8.20;72.20;;;;;;4957963;28;20073;-60
2023/03/15 07:10:22;;;;;;;16.30;11.75;;;8.30;72.30;;;;;;4965398;28;20054;-61
2023/03/15 07:12:48;;;;;;;16.55;11.32;;;8.40;72.20;;;;;;4965218;28;20689;-60
2023/03/15 07:15:13;;;;;;;13.80;10.27;;;8.40;71.90;;;;;;4971933;28;20026;-61
2023/03/15 07:17:40;;;;;;;16.55;10.45;;;8.40;71.70;;;;;;4981651;28;20033;-61
2023/03/15 07:20:07;;;;;;;14.57;10.35;;;8.40;71.60;;;;;;4962995;28;20039;-62
2023/03/15 07:22:33;;;;;;;16.67;11.00;;;8.40;71.70;;;;;;4973203;28;20031;-61
2023/03/15 07:24:58;;;;;;;15.00;10.07;;;8.30;71.60;;;;;;4976575;28;20051;-61
2023/03/15 07:27:24;;;;;;;15.82;10.70;;;8.30;71.90;;;;;;4980007;28;20038;-61
2023/03/15 07:29:50;;;;;;;13.85;10.88;;;8.20;72.00;;;;;;4962356;28;20043;-61
2023/03/15 07:32:16;;;;;;;12.65;9.27;;;8.20;72.20;;;;;;4972725;28;20549;-60
2023/03/15 07:34:42;;;;;;;14.13;9.57;;;8.20;73.00;;;;;;4962070;28;20417;-60
2023/03/15 07:37:08;;;;;;;15.05;9.75;;;8.20;73.30;;;;;;4958440;28;20039;-60
2023/03/15 07:39:34;;;;;;;14.65;10.20;;;8.20;72.60;;;;;;4962928;28;20038;-61
2023/03/15 07:41:59;;;;;;;12.48;8.73;;;8.20;72.80;;;;;;4962821;28;20375;-61
2023/03/15 07:44:25;;;;;;;13.25;8.85;;;8.20;72.70;;;;;;4965797;28;20696;-60
2023/03/15 07:46:51;;;;;;;14.73;10.35;;;8.30;73.00;;;;;;4957122;28;20042;-62
2023/03/15 07:49:17;;;;;;;15.85;11.18;;;8.30;73.10;;;;;;4962274;28;20039;-61
2023/03/15 07:51:42;;;;;;;13.93;9.88;;;8.30;72.90;;;;;;4960520;28;20037;-62
2023/03/15 07:54:08;;;;;;;15.52;10.32;;;8.40;72.80;;;;;;4960936;28;20486;-60
2023/03/15 07:56:34;;;;;;;15.85;10.15;;;8.40;72.90;;;;;;4963256;28;20037;-61
2023/03/15 07:59:00;;;;;;;15.20;9.98;;;8.40;72.90;;;;;;4962572;28;20034;-62
2023/03/15 08:01:25;;;;;;;14.73;9.65;;;8.40;72.90;;;;;;4952373;28;20049;-60
2023/03/15 08:03:51;;;;;;;13.20;8.63;;;8.40;73.20;;;;;;4957728;28;21108;-59
2023/03/15 08:06:17;;;;;;;14.35;8.65;;;8.40;73.40;;;;;;4958121;28;20035;-62
2023/03/15 08:08:43;;;;;;;11.23;8.27;;;8.40;73.40;;;;;;4957673;28;20037;-61
2023/03/15 08:11:09;;;;;;;13.43;8.43;;;8.50;73.40;;;;;;4958904;28;20126;-61
2023/03/15 08:13:35;;;;;;;10.65;7.97;;;8.50;73.50;;;;;;4944913;28;20034;-58
2023/03/15 08:16:00;;;;;;;9.65;7.28;;;8.40;73.50;;;;;;4950096;28;20047;-60
2023/03/15 08:18:27;;;;;;;10.88;7.88;;;8.40;73.60;;;;;;4954357;28;20046;-60
2023/03/15 08:20:54;;;;;;;10.30;7.68;;;8.40;73.80;;;;;;4953461;28;20038;-60
2023/03/15 08:23:20;;;;;;;8.38;6.57;;;8.40;74.10;;;;;;4955066;28;20035;-58
2023/03/15 08:25:46;;;;;;;9.55;7.30;;;8.40;74.20;;;;;;4949721;28;20031;-61
2023/03/15 08:28:12;;;;;;;10.88;7.47;;;8.40;74.30;;;;;;4953910;28;20046;-61
2023/03/15 08:30:37;;;;;;;11.40;7.68;;;8.40;74.40;;;;;;4954084;28;20093;-60
2023/03/15 08:33:03;;;;;;;13.20;7.53;;;8.40;74.50;;;;;;4951992;28;20034;-59
2023/03/15 08:35:30;;;;;;;12.77;7.80;;;8.40;74.60;;;;;;4951152;28;20035;-61
2023/03/15 08:37:56;;;;;;;10.45;6.80;;;8.40;74.60;;;;;;4955234;28;21150;-61
2023/03/15 08:40:24;;;;;;;8.23;6.65;;;8.50;74.60;;;;;;4956540;28;20037;-59
2023/03/15 08:42:52;;;;;;;10.15;7.43;;;8.50;74.60;;;;;;4953124;28;20063;-61
2023/03/15 08:45:18;;;;;;;12.50;8.20;;;8.50;74.60;;;;;;4955262;28;20038;-57
2023/03/15 08:47:44;;;;;;;12.38;7.57;;;8.50;74.60;;;;;;4965361;28;20061;-57
2023/03/15 08:50:12;;;;;;;11.55;7.93;;;8.50;74.70;;;;;;4954904;28;20030;-58
2023/03/15 08:52:38;;;;;;;10.57;7.97;;;8.50;74.70;;;;;;4944688;28;20512;-60
2023/03/15 08:55:05;;;;;;;11.30;7.32;;;8.50;74.60;;;;;;4959737;28;21150;-60
2023/03/15 08:57:32;;;;;;;11.13;7.70;;;8.50;74.70;;;;;;4956433;28;20039;-60
2023/03/15 09:00:06;;;;;;;9.50;7.15;;;8.50;74.60;;;;;;4948926;28;20039;-61
2023/03/15 09:02:32;;;;;;;7.95;6.78;;;8.40;74.80;;;;;;4974798;28;20034;-59
2023/03/15 09:04:58;;;;;;;9.98;7.45;;;8.30;74.70;;;;;;4958668;28;20161;-59
2023/03/15 09:07:24;;;;;;;10.18;6.43;;;8.30;75.20;;;;;;4955325;28;20028;-61
2023/03/15 09:09:53;;;;;;;12.00;7.57;;;8.30;75.30;;;;;;4959068;28;20122;-60
2023/03/15 09:12:19;;;;;;;11.95;7.93;;;8.40;75.20;;;;;;4958807;28;21221;-61
2023/03/15 09:14:45;;;;;;;10.27;7.40;;;8.40;75.20;;;;;;4959121;28;20039;-59
2023/03/15 09:17:11;;;;;;;10.32;6.55;;;8.40;75.10;;;;;;4949898;28;20576;-59
2023/03/15 09:19:37;;;;;;;8.07;6.57;;;8.50;75.30;;;;;;4959495;28;20041;-60
2023/03/15 09:22:03;;;;;;;11.40;7.80;;;8.50;75.30;;;;;;4957653;28;20125;-60
2023/03/15 09:24:28;;;;;;;9.30;6.95;;;8.50;75.30;;;;;;4953699;28;20066;-60
2023/03/15 09:26:54;;;;;;;11.02;7.65;;;8.50;75.10;;;;;;4953500;28;20465;-60
2023/03/15 09:29:20;;;;;;;9.38;6.60;;;8.40;75.20;;;;;;4952264;28;21045;-59
2023/03/15 09:31:46;;;;;;;12.95;7.55;;;8.40;75.20;;;;;;4944876;28;20046;-60
2023/03/15 09:34:11;;;;;;;11.32;7.25;;;8.30;75.40;;;;;;4960647;28;20113;-60
2023/03/15 09:36:37;;;;;;;9.43;6.93;;;8.30;75.50;;;;;;4965993;28;20161;-60
2023/03/15 09:39:03;;;;;;;10.13;6.78;;;8.30;75.70;;;;;;4962489;28;20893;-57
2023/03/15 09:41:34;;;;;;;10.85;6.50;;;8.40;76.00;;;;;;4953634;28;20042;-59
2023/03/15 09:44:23;;;;;;;9.25;6.60;;;8.40;75.60;;;;;;4954538;28;20026;-58
2023/03/15 09:47:27;;;;;;;8.77;6.60;;;8.40;75.50;;;;;;4941166;28;20054;-60
2023/03/15 09:50:06;;;;;;;8.77;6.30;;;8.40;75.60;;;;;;4954010;28;20024;-59
2023/03/15 09:52:43;;;;;;;9.50;6.55;;;8.50;75.60;;;;;;4951715;28;20572;-61
2023/03/15 09:55:15;;;;;;;8.88;6.00;;;8.50;75.50;;;;;;4956414;28;20050;-57
2023/03/15 09:57:47;;;;;;;8.90;6.32;;;8.50;75.50;;;;;;4958219;28;20490;-61
2023/03/15 10:00:36;;;;;;;8.73;6.18;;;8.50;75.50;;;;;;4946345;28;20031;-58
2023/03/15 10:03:05;;;;;;;8.07;5.63;;;8.50;75.70;;;;;;4955331;28;20458;-61
2023/03/15 10:05:48;;;;;;;7.97;6.00;;;8.60;76.00;;;;;;4956104;28;20034;-58
2023/03/15 10:08:16;;;;;;;8.23;6.05;;;8.70;76.00;;;;;;4959944;28;20093;-59
2023/03/15 10:11:06;;;;;;;12.15;6.45;;;8.80;75.60;;;;;;4949922;28;20052;-60
2023/03/15 10:13:41;;;;;;;10.18;6.25;;;8.90;75.40;;;;;;4954782;28;20126;-61
2023/03/15 10:16:33;;;;;;;7.75;6.10;;;8.90;75.20;;;;;;4954458;28;20047;-61
2023/03/15 10:18:58;;;;;;;;;;;8.90;75.00;;;;;;4964419;28;20031;-61
2023/03/15 10:21:48;;;;;;;7.97;5.55;;;8.90;75.00;;;;;;4951887;28;20360;-60
2023/03/15 10:24:29;;;;;;;9.25;6.20;;;8.90;74.70;;;;;;4953276;28;21398;-59
2023/03/15 10:27:04;;;;;;;7.25;6.13;;;8.90;74.80;;;;;;4950862;28;20047;-60
2023/03/15 10:29:30;;;;;;;9.48;6.80;;;8.80;74.80;;;;;;4956751;28;20031;-57
2023/03/15 10:31:55;;;;;;;9.07;6.30;;;8.80;75.00;;;;;;4949075;28;20049;-59
2023/03/15 10:34:24;;;;;;;8.63;6.03;;;8.80;75.10;;;;;;4949713;28;20129;-60
2023/03/15 10:36:54;;;;;;;7.95;6.35;;;8.80;75.40;;;;;;4950702;28;20394;-60
2023/03/15 10:39:20;;;;;;;10.68;7.03;;;8.80;75.40;;;;;;4948258;28;20117;-59
2023/03/15 10:41:49;;;;;;;12.10;6.75;;;8.80;75.30;;;;;;4952161;28;20050;-59
2023/03/15 10:44:23;;;;;;;10.00;6.75;;;8.80;75.40;;;;;;4955706;28;20363;-57
2023/03/15 10:47:13;;;;;;;7.75;5.93;;;8.80;75.60;;;;;;4947790;28;20876;-59
2023/03/15 10:49:40;;;;;;;9.07;6.85;;;8.80;75.60;;;;;;4944417;28;20043;-60
2023/03/15 10:52:23;;;;;;;10.60;6.43;;;8.90;75.70;;;;;;4952395;28;20046;-59
2023/03/15 10:54:50;;;;;;;10.93;6.68;;;8.90;75.70;;;;;;4962667;28;20706;-59
2023/03/15 10:57:20;;;;;;;9.63;6.90;;;8.90;75.60;;;;;;4952341;28;20649;-59
2023/03/15 11:00:05;;;;;;;8.13;5.90;;;8.90;75.50;;;;;;4955402;28;20038;-59
2023/03/15 11:02:31;;;;;;;8.82;6.75;;;8.90;75.50;;;;;;4944517;28;20038;-61
2023/03/15 11:05:28;;;;;;;7.22;5.57;;;8.90;75.80;;;;;;4953028;28;20496;-59
2023/03/15 11:07:58;;;;;;;7.88;6.47;;;8.90;75.90;;;;;;4960811;28;20080;-59
2023/03/15 11:10:27;;;;;;;8.83;6.80;;;8.90;75.90;;;;;;4956006;28;20065;-60
2023/03/15 11:13:16;;;;;;;8.02;5.90;;;9.00;75.90;;;;;;4954904;28;20060;-60
2023/03/15 11:15:51;;;;;;;7.72;5.72;;;9.00;75.90;;;;;;4959103;28;20027;-59
2023/03/15 11:18:23;;;;;;;8.40;5.68;;;9.00;76.10;;;;;;4954717;28;21594;-60
2023/03/15 11:20:53;;;;;;;10.85;6.45;;;9.10;76.10;;;;;;4952027;28;20457;-59
2023/03/15 11:23:26;;;;;;;8.27;6.30;;;9.10;75.90;;;;;;4946567;28;20038;-61
2023/03/15 11:25:53;;;;;;;12.43;6.85;;;9.20;75.70;;;;;;4951821;28;20046;-61
2023/03/15 11:28:30;;;;;;;7.55;5.95;;;9.20;75.50;;;;;;4959968;28;20067;-60
2023/03/15 11:31:00;;;;;;;9.77;6.40;;;9.20;75.40;;;;;;4955568;28;20038;-60
2023/03/15 11:33:55;;;;;;;8.93;6.40;;;9.20;75.50;;;;;;4955417;28;20036;-62
2023/03/15 11:36:23;;;;;;;10.60;6.93;;;9.10;75.40;;;;;;4962264;28;20039;-61
2023/03/15 11:38:52;;;;;;;10.82;7.40;;;9.10;75.40;;;;;;4961285;28;20529;-62
2023/03/15 11:41:26;;;;;;;9.77;6.68;;;9.00;76.00;;;;;;4954266;28;20136;-62
2023/03/15 11:44:13;;;;;;;9.02;7.30;;;8.90;75.60;;;;;;4956106;28;20055;-61
2023/03/15 11:46:47;;;;;;;10.85;7.25;;;8.80;75.70;;;;;;4951168;28;20026;-60
2023/03/15 11:49:37;;;;;;;10.48;7.13;;;8.80;75.90;;;;;;4964912;28;20046;-61
2023/03/15 11:52:04;;;;;;;10.90;7.10;;;8.70;75.90;;;;;;4961938;28;20508;-60
2023/03/15 11:54:31;;;;;;;10.65;7.28;;;8.70;76.10;;;;;;4966050;28;20485;-59
2023/03/15 11:57:02;;;;;;;11.43;7.20;;;8.60;76.30;;;;;;4963896;28;20050;-61
2023/03/15 11:59:32;;;;;;;9.10;7.53;;;8.50;76.50;;;;;;4968992;28;20051;-61
2023/03/15 12:02:25;;;;;;;8.80;6.47;;;8.50;76.70;;;;;;4959217;28;20043;-61
2023/03/15 12:04:53;;;;;;;9.27;6.70;;;8.50;76.90;;;;;;4955352;28;20149;-60
2023/03/15 12:07:18;;;;;;;8.88;6.63;;;8.50;77.20;;;;;;4964748;28;20062;-62
2023/03/15 12:09:56;;;;;;;10.88;7.38;;;8.50;77.10;;;;;;4967114;28;20030;-58
2023/03/15 12:12:25;;;;;;;9.35;6.95;;;8.50;77.10;;;;;;4960222;28;20094;-61
2023/03/15 12:15:17;;;;;;;8.88;6.63;;;8.40;77.30;;;;;;4964094;28;20065;-62
2023/03/15 12:17:58;;;;;;;10.35;6.93;;;8.50;77.40;;;;;;4963076;28;20509;-61
2023/03/15 12:20:33;;;;;;;10.30;6.40;;;8.50;77.30;;;;;;4968265;28;20031;-60
2023/03/15 12:23:15;;;;;;;8.80;6.07;;;8.50;77.30;;;;;;4961168;28;20074;-61
2023/03/15 12:25:58;;;;;;;8.98;6.47;;;8.50;77.40;;;;;;4955149;28;20066;-60
2023/03/15 12:28:43;;;;;;;8.23;6.18;;;8.60;77.70;;;;;;4965009;28;20043;-60
2023/03/15 12:31:12;;;;;;;9.27;6.53;;;8.60;77.30;;;;;;4958616;28;20031;-62
2023/03/15 12:33:57;;;;;;;7.93;6.47;;;8.60;77.40;;;;;;4952885;28;20039;-60
2023/03/15 12:36:39;;;;;;;8.77;6.03;;;8.60;77.40;;;;;;4952222;28;20030;-61
2023/03/15 12:39:17;;;;;;;9.73;6.28;;;8.60;77.40;;;;;;4956332;28;20050;-60
2023/03/15 12:41:48;;;;;;;8.57;6.32;;;8.70;77.40;;;;;;4954652;28;20560;-59
2023/03/15 12:44:45;;;;;;;8.32;6.45;;;8.70;77.40;;;;;;4964378;28;20038;-60
2023/03/15 12:47:11;;;;;;;11.73;7.10;;;8.70;77.30;;;;;;4961064;28;20043;-61
2023/03/15 12:49:43;;;;;;;10.98;7.60;;;8.70;77.50;;;;;;4960473;28;20351;-60
2023/03/15 12:52:12;;;;;;;9.93;6.43;;;8.70;77.60;;;;;;4959323;28;20046;-59
2023/03/15 12:55:17;;;;;;;9.13;6.45;;;8.70;77.50;;;;;;4955332;28;20830;-57
2023/03/15 12:57:53;;;;;;;9.85;6.70;;;8.70;77.50;;;;;;4957817;28;20110;-60
2023/03/15 13:00:23;;;;;;;8.40;6.22;;;8.70;77.40;;;;;;4962283;28;20039;-61